sensor_id;sensor_type;location;lat;lon;timestamp;pressure;altitude;pressure_sealevel;temperature;humidity
18755;BME280;35061;47.664;9.166;2022-08-27T00:01:42;101433.35;;;16.93;100.00
18755;BME280;35061;47.664;9.166;2022-08-27T00:04:09;101437.57;;;16.92;100.00
18755;BME280;35061;47.664;9.166;2022-08-27T00:06:37;101431.78;;;16.92;100.00
18755;BME280;35061;47.664;9.166;2022-08-27T00:09:06;101438.35;;;16.93;100.00
18755;BME280;35061;47.664;9.166;2022-08-27T00:11:34;101434.95;;;16.94;100.00
18755;BME280;35061;47.664;9.166;2022-08-27T00:14:02;101437.30;;;16.96;100.00
18755;BME280;35061;47.664;9.166;2022-08-27T00:16:30;101429.69;;;16.98;100.00
18755;BME280;35061;47.664;9.166;2022-08-27T00:18:59;101429.98;;;17.00;100.00
18755;BME280;35061;47.664;9.166;2022-08-27T00:21:26;101420.80;;;17.02;100.00
18755;BME280;35061;47.664;9.166;2022-08-27T00:23:54;101427.89;;;17.01;100.00
18755;BME280;35061;47.664;9.166;2022-08-27T00:26:22;101413.93;;;16.99;100.00
18755;BME280;35061;47.664;9.166;2022-08-27T00:28:51;101413.44;;;17.01;100.00
18755;BME280;35061;47.664;9.166;2022-08-27T00:31:19;101408.95;;;17.06;100.00
18755;BME280;35061;47.664;9.166;2022-08-27T00:33:53;101415.79;;;17.08;100.00
18755;BME280;35061;47.664;9.166;2022-08-27T00:36:21;101406.57;;;17.10;100.00
18755;BME280;35061;47.664;9.166;2022-08-27T00:38:49;101405.52;;;17.07;100.00
18755;BME280;35061;47.664;9.166;2022-08-27T00:41:19;101406.83;;;17.06;100.00
18755;BME280;35061;47.664;9.166;2022-08-27T00:43:59;101398.16;;;17.06;100.00
18755;BME280;35061;47.664;9.166;2022-08-27T00:46:47;101398.16;;;17.06;100.00
18755;BME280;35061;47.664;9.166;2022-08-27T00:49:23;101398.95;;;17.07;100.00
18755;BME280;35061;47.664;9.166;2022-08-27T00:51:56;101399.73;;;17.07;100.00
18755;BME280;35061;47.664;9.166;2022-08-27T00:54:25;101403.95;;;17.12;100.00
18755;BME280;35061;47.664;9.166;2022-08-27T00:56:54;101398.69;;;17.10;100.00
18755;BME280;35061;47.664;9.166;2022-08-27T00:59:26;101398.69;;;17.10;100.00
18755;BME280;35061;47.664;9.166;2022-08-27T01:01:58;101405.52;;;17.13;100.00
18755;BME280;35061;47.664;9.166;2022-08-27T01:04:48;101400.52;;;17.13;100.00
18755;BME280;35061;47.664;9.166;2022-08-27T01:07:17;101400.29;;;17.17;100.00
18755;BME280;35061;47.664;9.166;2022-08-27T01:09:46;101396.83;;;17.19;100.00
18755;BME280;35061;47.664;9.166;2022-08-27T01:12:15;101394.47;;;17.23;100.00
18755;BME280;35061;47.664;9.166;2022-08-27T01:14:44;101399.48;;;17.22;100.00
18755;BME280;35061;47.664;9.166;2022-08-27T01:17:13;101394.47;;;17.23;100.00
18755;BME280;35061;47.664;9.166;2022-08-27T01:19:50;101399.48;;;17.28;100.00
18755;BME280;35061;47.664;9.166;2022-08-27T01:22:50;101390.25;;;17.29;100.00
18755;BME280;35061;47.664;9.166;2022-08-27T01:25:20;101394.73;;;17.30;100.00
18755;BME280;35061;47.664;9.166;2022-08-27T01:27:50;101389.99;;;17.33;100.00
18755;BME280;35061;47.664;9.166;2022-08-27T01:30:20;101390.25;;;17.35;100.00
18755;BME280;35061;47.664;9.166;2022-08-27T01:32:48;101384.20;;;17.39;100.00
18755;BME280;35061;47.664;9.166;2022-08-27T01:35:17;101383.94;;;17.42;100.00
18755;BME280;35061;47.664;9.166;2022-08-27T01:37:47;101392.09;;;17.44;100.00
18755;BME280;35061;47.664;9.166;2022-08-27T01:40:18;101388.65;;;17.46;100.00
18755;BME280;35061;47.664;9.166;2022-08-27T01:42:49;101388.65;;;17.46;100.00
18755;BME280;35061;47.664;9.166;2022-08-27T01:45:25;101388.65;;;17.46;100.00
18755;BME280;35061;47.664;9.166;2022-08-27T01:47:53;101388.65;;;17.46;100.00
18755;BME280;35061;47.664;9.166;2022-08-27T01:50:24;101384.20;;;17.44;100.00
18755;BME280;35061;47.664;9.166;2022-08-27T01:52:53;101386.52;;;17.46;100.00
18755;BME280;35061;47.664;9.166;2022-08-27T01:55:23;101384.70;;;17.49;100.00
18755;BME280;35061;47.664;9.166;2022-08-27T01:57:53;101386.82;;;17.48;100.00
18755;BME280;35061;47.664;9.166;2022-08-27T02:00:26;101394.96;;;17.50;100.00
18755;BME280;35061;47.664;9.166;2022-08-27T02:02:55;101392.61;;;17.48;100.00
18755;BME280;35061;47.664;9.166;2022-08-27T02:05:24;101397.84;;;17.50;100.00
18755;BME280;35061;47.664;9.166;2022-08-27T02:07:52;101402.87;;;17.49;100.00
18755;BME280;35061;47.664;9.166;2022-08-27T02:10:24;101407.88;;;17.49;100.00
18755;BME280;35061;47.664;9.166;2022-08-27T02:12:52;101398.39;;;17.48;100.00
18755;BME280;35061;47.664;9.166;2022-08-27T02:15:22;101398.10;;;17.52;100.00
18755;BME280;35061;47.664;9.166;2022-08-27T02:17:51;101399.70;;;17.53;100.00
18755;BME280;35061;47.664;9.166;2022-08-27T02:20:20;101402.61;;;17.53;100.00
18755;BME280;35061;47.664;9.166;2022-08-27T02:22:51;101413.11;;;17.56;100.00
18755;BME280;35061;47.664;9.166;2022-08-27T02:25:19;101401.53;;;17.56;100.00
18755;BME280;35061;47.664;9.166;2022-08-27T02:27:48;101402.58;;;17.58;100.00
18755;BME280;35061;47.664;9.166;2022-08-27T02:30:20;101400.98;;;17.57;100.00
18755;BME280;35061;47.664;9.166;2022-08-27T02:32:49;101395.74;;;17.56;100.00
18755;BME280;35061;47.664;9.166;2022-08-27T02:35:21;101395.74;;;17.56;100.00
18755;BME280;35061;47.664;9.166;2022-08-27T02:37:50;101400.75;;;17.55;100.00
18755;BME280;35061;47.664;9.166;2022-08-27T02:40:21;101398.39;;;17.54;100.00
18755;BME280;35061;47.664;9.166;2022-08-27T02:42:49;101396.83;;;17.53;100.00
18755;BME280;35061;47.664;9.166;2022-08-27T02:45:18;101389.96;;;17.50;100.00
18755;BME280;35061;47.664;9.166;2022-08-27T02:47:47;101393.13;;;17.47;100.00
18755;BME280;35061;47.664;9.166;2022-08-27T02:50:15;101387.34;;;17.47;100.00
18755;BME280;35061;47.664;9.166;2022-08-27T02:52:43;101385.51;;;17.49;100.00
18755;BME280;35061;47.664;9.166;2022-08-27T02:55:12;101376.81;;;17.49;100.00
18755;BME280;35061;47.664;9.166;2022-08-27T02:57:43;101380.48;;;17.50;100.00
18755;BME280;35061;47.664;9.166;2022-08-27T03:00:15;101382.05;;;17.51;100.00
18755;BME280;35061;47.664;9.166;2022-08-27T03:02:43;101382.34;;;17.53;100.00
18755;BME280;35061;47.664;9.166;2022-08-27T03:05:12;101371.52;;;17.53;100.00
18755;BME280;35061;47.664;9.166;2022-08-27T03:07:41;101372.59;;;17.56;100.00
18755;BME280;35061;47.664;9.166;2022-08-27T03:10:11;101370.20;;;17.54;100.00
18755;BME280;35061;47.664;9.166;2022-08-27T03:12:40;101371.81;;;17.50;100.00
18755;BME280;35061;47.664;9.166;2022-08-27T03:15:10;101374.95;;;17.46;100.00
18755;BME280;35061;47.664;9.166;2022-08-27T03:17:39;101372.37;;;17.37;100.00
18755;BME280;35061;47.664;9.166;2022-08-27T03:20:26;101372.07;;;17.35;100.00
18755;BME280;35061;47.664;9.166;2022-08-27T03:22:54;101379.20;;;17.34;100.00
18755;BME280;35061;47.664;9.166;2022-08-27T03:25:22;101374.72;;;17.33;100.00
18755;BME280;35061;47.664;9.166;2022-08-27T03:27:50;101370.27;;;17.32;100.00
18755;BME280;35061;47.664;9.166;2022-08-27T03:30:20;101365.53;;;17.28;100.00
18755;BME280;35061;47.664;9.166;2022-08-27T03:32:49;101358.44;;;17.29;100.00
18755;BME280;35061;47.664;9.166;2022-08-27T03:35:18;101356.05;;;17.28;100.00
18755;BME280;35061;47.664;9.166;2022-08-27T03:37:46;101363.14;;;17.27;100.00
18755;BME280;35061;47.664;9.166;2022-08-27T03:40:15;101354.22;;;17.25;100.00
18755;BME280;35061;47.664;9.166;2022-08-27T03:42:43;101359.22;;;17.24;100.00
18755;BME280;35061;47.664;9.166;2022-08-27T03:45:11;101350.26;;;17.22;100.00
18755;BME280;35061;47.664;9.166;2022-08-27T03:47:39;101355.30;;;17.22;100.00
18755;BME280;35061;47.664;9.166;2022-08-27T03:50:07;101347.12;;;17.20;100.00
18755;BME280;35061;47.664;9.166;2022-08-27T03:52:36;101343.42;;;17.20;100.00
18755;BME280;35061;47.664;9.166;2022-08-27T03:55:06;101352.91;;;17.20;100.00
18755;BME280;35061;47.664;9.166;2022-08-27T03:57:34;101341.86;;;17.19;100.00
18755;BME280;35061;47.664;9.166;2022-08-27T04:00:04;101340.29;;;17.18;100.00
18755;BME280;35061;47.664;9.166;2022-08-27T04:02:33;101345.55;;;17.19;100.00
18755;BME280;35061;47.664;9.166;2022-08-27T04:05:00;101336.36;;;17.21;100.00
18755;BME280;35061;47.664;9.166;2022-08-27T04:07:28;101338.69;;;17.22;100.00
18755;BME280;35061;47.664;9.166;2022-08-27T04:09:56;101345.29;;;17.23;100.00
18755;BME280;35061;47.664;9.166;2022-08-27T04:12:24;101341.07;;;17.24;100.00
18755;BME280;35061;47.664;9.166;2022-08-27T04:14:53;101341.07;;;17.24;100.00
18755;BME280;35061;47.664;9.166;2022-08-27T04:17:21;101339.50;;;17.23;100.00
18755;BME280;35061;47.664;9.166;2022-08-27T04:19:50;101338.20;;;17.24;100.00
18755;BME280;35061;47.664;9.166;2022-08-27T04:22:19;101341.07;;;17.24;100.00
18755;BME280;35061;47.664;9.166;2022-08-27T04:24:47;101335.28;;;17.24;100.00
18755;BME280;35061;47.664;9.166;2022-08-27T04:27:15;101332.63;;;17.26;100.00
18755;BME280;35061;47.664;9.166;2022-08-27T04:29:43;101329.76;;;17.26;100.00
18755;BME280;35061;47.664;9.166;2022-08-27T04:32:13;101329.49;;;17.24;100.00
18755;BME280;35061;47.664;9.166;2022-08-27T04:34:41;101334.73;;;17.25;100.00
18755;BME280;35061;47.664;9.166;2022-08-27T04:37:09;101334.20;;;17.27;100.00
18755;BME280;35061;47.664;9.166;2022-08-27T04:39:36;101341.59;;;17.28;100.00
18755;BME280;35061;47.664;9.166;2022-08-27T04:42:04;101326.32;;;17.27;100.00
18755;BME280;35061;47.664;9.166;2022-08-27T04:44:32;101325.54;;;17.27;100.00
18755;BME280;35061;47.664;9.166;2022-08-27T04:47:02;101325.80;;;17.29;100.00
18755;BME280;35061;47.664;9.166;2022-08-27T04:49:31;101328.68;;;17.29;100.00
18755;BME280;35061;47.664;9.166;2022-08-27T04:52:00;101322.89;;;17.29;100.00
18755;BME280;35061;47.664;9.166;2022-08-27T04:54:29;101328.16;;;17.30;100.00
18755;BME280;35061;47.664;9.166;2022-08-27T04:56:59;101331.33;;;17.33;100.00
18755;BME280;35061;47.664;9.166;2022-08-27T04:59:27;101332.11;;;17.33;100.00
18755;BME280;35061;47.664;9.166;2022-08-27T05:01:56;101339.73;;;17.30;100.00
18755;BME280;35061;47.664;9.166;2022-08-27T05:04:24;101335.28;;;17.29;100.00
18755;BME280;35061;47.664;9.166;2022-08-27T05:06:52;101343.39;;;17.31;100.00
18755;BME280;35061;47.664;9.166;2022-08-27T05:09:20;101339.73;;;17.30;100.00
18755;BME280;35061;47.664;9.166;2022-08-27T05:11:52;101344.21;;;17.32;100.00
18755;BME280;35061;47.664;9.166;2022-08-27T05:14:22;101348.95;;;17.29;100.00
18755;BME280;35061;47.664;9.166;2022-08-27T05:16:50;101336.59;;;17.28;100.00
18755;BME280;35061;47.664;9.166;2022-08-27T05:19:18;101341.59;;;17.28;100.00
18755;BME280;35061;47.664;9.166;2022-08-27T05:21:47;101342.90;;;17.27;100.00
18755;BME280;35061;47.664;9.166;2022-08-27T05:24:16;101336.33;;;17.26;100.00
18755;BME280;35061;47.664;9.166;2022-08-27T05:26:45;101343.42;;;17.25;100.00
18755;BME280;35061;47.664;9.166;2022-08-27T05:29:13;101339.77;;;17.25;100.00
18755;BME280;35061;47.664;9.166;2022-08-27T05:31:41;101338.95;;;17.24;100.00
18755;BME280;35061;47.664;9.166;2022-08-27T05:34:10;101341.34;;;17.26;100.00
18755;BME280;35061;47.664;9.166;2022-08-27T05:36:47;101337.64;;;17.25;100.00
18755;BME280;35061;47.664;9.166;2022-08-27T05:39:16;101333.45;;;17.26;100.00
18755;BME280;35061;47.664;9.166;2022-08-27T05:41:43;101345.78;;;17.27;100.00
18755;BME280;35061;47.664;9.166;2022-08-27T05:44:11;101334.20;;;17.27;100.00
18755;BME280;35061;47.664;9.166;2022-08-27T05:46:59;101337.12;;;17.27;100.00
18755;BME280;35061;47.664;9.166;2022-08-27T05:49:27;101339.24;;;17.26;100.00
18755;BME280;35061;47.664;9.166;2022-08-27T05:51:55;101336.33;;;17.26;100.00
18755;BME280;35061;47.664;9.166;2022-08-27T05:54:22;101335.55;;;17.26;100.00
18755;BME280;35061;47.664;9.166;2022-08-27T05:56:50;101340.81;;;17.27;100.00
18755;BME280;35061;47.664;9.166;2022-08-27T05:59:18;101356.60;;;17.21;100.00
18755;BME280;35061;47.664;9.166;2022-08-27T06:02:05;101353.73;;;17.21;100.00
18755;BME280;35061;47.664;9.166;2022-08-27T06:04:33;101356.60;;;17.21;100.00
18755;BME280;35061;47.664;9.166;2022-08-27T06:07:01;101352.13;;;17.20;100.00
18755;BME280;35061;47.664;9.166;2022-08-27T06:09:30;101350.81;;;17.21;100.00
18755;BME280;35061;47.664;9.166;2022-08-27T06:11:58;101358.17;;;17.22;100.00
18755;BME280;35061;47.664;9.166;2022-08-27T06:14:27;101349.48;;;17.27;100.00
18755;BME280;35061;47.664;9.166;2022-08-27T06:16:55;101352.88;;;17.32;100.00
18755;BME280;35061;47.664;9.166;2022-08-27T06:19:23;101352.65;;;17.29;100.00
18755;BME280;35061;47.664;9.166;2022-08-27T06:21:51;101358.70;;;17.32;100.00
18755;BME280;35061;47.664;9.166;2022-08-27T06:24:35;101361.84;;;17.34;100.00
18755;BME280;35061;47.664;9.166;2022-08-27T06:27:03;101351.05;;;17.34;100.00
18755;BME280;35061;47.664;9.166;2022-08-27T06:29:31;101355.00;;;17.42;100.00
18755;BME280;35061;47.664;9.166;2022-08-27T06:32:02;101368.64;;;17.48;100.00
18755;BME280;35061;47.664;9.166;2022-08-27T06:34:30;101356.27;;;17.53;100.00
18755;BME280;35061;47.664;9.166;2022-08-27T06:36:58;101369.68;;;17.56;100.00
18755;BME280;35061;47.664;9.166;2022-08-27T06:39:26;101366.25;;;17.57;100.00
18755;BME280;35061;47.664;9.166;2022-08-27T06:41:56;101364.65;;;17.62;100.00
18755;BME280;35061;47.664;9.166;2022-08-27T06:44:24;101362.82;;;17.65;100.00
18755;BME280;35061;47.664;9.166;2022-08-27T06:46:52;101363.34;;;17.69;100.00
18755;BME280;35061;47.664;9.166;2022-08-27T06:49:20;101362.00;;;17.76;100.00
18755;BME280;35061;47.664;9.166;2022-08-27T06:51:48;101363.80;;;17.84;100.00
18755;BME280;35061;47.664;9.166;2022-08-27T06:54:15;101359.02;;;17.93;100.00
18755;BME280;35061;47.664;9.166;2022-08-27T06:56:45;101366.67;;;17.90;100.00
18755;BME280;35061;47.664;9.166;2022-08-27T06:59:14;101371.71;;;17.90;100.00
18755;BME280;35061;47.664;9.166;2022-08-27T07:01:47;101367.76;;;17.87;100.00
18755;BME280;35061;47.664;9.166;2022-08-27T07:04:22;101371.16;;;17.91;100.00
18755;BME280;35061;47.664;9.166;2022-08-27T07:06:57;101371.68;;;17.95;100.00
18755;BME280;35061;47.664;9.166;2022-08-27T07:09:25;101372.95;;;17.94;100.00
18755;BME280;35061;47.664;9.166;2022-08-27T07:11:53;101372.95;;;17.94;100.00
18755;BME280;35061;47.664;9.166;2022-08-27T07:14:21;101374.55;;;17.95;100.00
18755;BME280;35061;47.664;9.166;2022-08-27T07:16:49;101373.51;;;17.93;100.00
18755;BME280;35061;47.664;9.166;2022-08-27T07:19:18;101374.26;;;17.99;100.00
18755;BME280;35061;47.664;9.166;2022-08-27T07:21:47;101376.88;;;18.03;100.00
18755;BME280;35061;47.664;9.166;2022-08-27T07:24:15;101380.34;;;18.07;100.00
18755;BME280;35061;47.664;9.166;2022-08-27T07:26:42;101384.30;;;18.04;100.00
18755;BME280;35061;47.664;9.166;2022-08-27T07:29:12;101384.56;;;18.06;100.00
18755;BME280;35061;47.664;9.166;2022-08-27T07:31:41;101383.26;;;18.01;100.00
18755;BME280;35061;47.664;9.166;2022-08-27T07:34:10;101382.70;;;18.03;100.00
18755;BME280;35061;47.664;9.166;2022-08-27T07:36:38;101388.52;;;17.97;100.00
18755;BME280;35061;47.664;9.166;2022-08-27T07:39:06;101388.23;;;18.00;100.00
18755;BME280;35061;47.664;9.166;2022-08-27T07:41:34;101387.99;;;18.04;100.00
18755;BME280;35061;47.664;9.166;2022-08-27T07:44:26;101393.52;;;18.08;100.00
18755;BME280;35061;47.664;9.166;2022-08-27T07:47:00;101399.05;;;18.06;100.00
18755;BME280;35061;47.664;9.166;2022-08-27T07:49:29;101392.45;;;18.11;100.00
18755;BME280;35061;47.664;9.166;2022-08-27T07:51:58;101399.80;;;18.12;100.00
18755;BME280;35061;47.664;9.166;2022-08-27T07:54:26;101400.06;;;18.14;100.00
18755;BME280;35061;47.664;9.166;2022-08-27T07:56:54;101400.29;;;18.16;100.00
18755;BME280;35061;47.664;9.166;2022-08-27T07:59:23;101405.55;;;18.18;100.00
18755;BME280;35061;47.664;9.166;2022-08-27T08:01:53;101400.81;;;18.20;100.00
18755;BME280;35061;47.664;9.166;2022-08-27T08:04:21;101394.77;;;18.24;100.00
18755;BME280;35061;47.664;9.166;2022-08-27T08:06:50;101396.04;;;18.29;100.00
18755;BME280;35061;47.664;9.166;2022-08-27T08:09:19;101397.91;;;18.26;100.00
18755;BME280;35061;47.664;9.166;2022-08-27T08:11:49;101397.91;;;18.26;100.00
18755;BME280;35061;47.664;9.166;2022-08-27T08:14:18;101402.09;;;18.31;100.00
18755;BME280;35061;47.664;9.166;2022-08-27T08:16:46;101405.26;;;18.27;100.00
18755;BME280;35061;47.664;9.166;2022-08-27T08:19:14;101402.35;;;18.33;100.00
18755;BME280;35061;47.664;9.166;2022-08-27T08:21:42;101411.80;;;18.39;100.00
18755;BME280;35061;47.664;9.166;2022-08-27T08:24:10;101404.45;;;18.38;100.00
18755;BME280;35061;47.664;9.166;2022-08-27T08:26:37;101408.92;;;18.39;100.00
18755;BME280;35061;47.664;9.166;2022-08-27T08:29:08;101406.27;;;18.35;100.00
18755;BME280;35061;47.664;9.166;2022-08-27T08:31:43;101410.52;;;18.34;100.00
18755;BME280;35061;47.664;9.166;2022-08-27T08:34:15;101423.97;;;18.32;100.00
18755;BME280;35061;47.664;9.166;2022-08-27T08:36:43;101422.88;;;18.35;100.00
18755;BME280;35061;47.664;9.166;2022-08-27T08:39:20;101414.71;;;18.39;100.00
18755;BME280;35061;47.664;9.166;2022-08-27T08:41:51;101411.28;;;18.35;100.00
18755;BME280;35061;47.664;9.166;2022-08-27T08:49:57;101426.29;;;18.45;100.00
18755;BME280;35061;47.664;9.166;2022-08-27T08:57:48;101428.09;;;18.48;100.00
18755;BME280;35061;47.664;9.166;2022-08-27T09:00:18;101434.95;;;18.50;100.00
18755;BME280;35061;47.664;9.166;2022-08-27T09:02:51;101430.48;;;18.49;100.00
18755;BME280;35061;47.664;9.166;2022-08-27T09:05:22;101434.40;;;18.52;100.00
18755;BME280;35061;47.664;9.166;2022-08-27T09:08:14;101437.57;;;18.54;100.00
18755;BME280;35061;47.664;9.166;2022-08-27T09:13:58;101440.12;;;18.63;100.00
18755;BME280;35061;47.664;9.166;2022-08-27T09:16:28;101441.72;;;18.64;100.00
18755;BME280;35061;47.664;9.166;2022-08-27T09:18:56;101436.20;;;18.61;100.00
18755;BME280;35061;47.664;9.166;2022-08-27T09:21:33;101441.40;;;18.68;100.00
18755;BME280;35061;47.664;9.166;2022-08-27T09:24:12;101436.36;;;18.74;100.00
18755;BME280;35061;47.664;9.166;2022-08-27T09:26:42;101426.58;;;18.77;100.00
18755;BME280;35061;47.664;9.166;2022-08-27T09:29:13;101433.16;;;18.83;100.00
18755;BME280;35061;47.664;9.166;2022-08-27T09:32:02;101427.83;;;18.88;100.00
18755;BME280;35061;47.664;9.166;2022-08-27T09:34:36;101431.26;;;18.92;100.00
18755;BME280;35061;47.664;9.166;2022-08-27T09:37:14;101423.57;;;18.94;100.00
18755;BME280;35061;47.664;9.166;2022-08-27T09:39:48;101436.20;;;19.03;100.00
18755;BME280;35061;47.664;9.166;2022-08-27T09:44:56;101428.45;;;19.17;100.00
18755;BME280;35061;47.664;9.166;2022-08-27T09:47:25;101433.71;;;19.18;100.00
18755;BME280;35061;47.664;9.166;2022-08-27T09:50:06;101425.54;;;19.17;100.00
18755;BME280;35061;47.664;9.166;2022-08-27T09:52:48;101421.61;;;19.14;100.00
18755;BME280;35061;47.664;9.166;2022-08-27T09:58:21;101417.98;;;19.08;100.00
18755;BME280;35061;47.664;9.166;2022-08-27T10:01:04;101419.91;;;19.24;100.00
18755;BME280;35061;47.664;9.166;2022-08-27T10:03:32;101417.16;;;19.38;100.00
18755;BME280;35061;47.664;9.166;2022-08-27T10:06:00;101420.27;;;19.46;100.00
18755;BME280;35061;47.664;9.166;2022-08-27T10:11:24;101421.22;;;19.54;100.00
18755;BME280;35061;47.664;9.166;2022-08-27T10:26:33;101412.48;;;19.29;100.00
18755;BME280;35061;47.664;9.166;2022-08-27T10:35:23;101415.70;;;19.25;100.00
18755;BME280;35061;47.664;9.166;2022-08-27T10:38:13;101417.49;;;19.34;100.00
18755;BME280;35061;47.664;9.166;2022-08-27T10:41:00;101407.68;;;19.37;100.00
18755;BME280;35061;47.664;9.166;2022-08-27T10:43:55;101414.52;;;19.40;100.00
18755;BME280;35061;47.664;9.166;2022-08-27T10:50:06;101404.48;;;19.41;100.00
18755;BME280;35061;47.664;9.166;2022-08-27T10:53:03;101402.38;;;19.36;100.00
18755;BME280;35061;47.664;9.166;2022-08-27T10:55:39;101406.47;;;19.52;100.00
18755;BME280;35061;47.664;9.166;2022-08-27T11:03:44;101396.07;;;19.62;100.00
18755;BME280;35061;47.664;9.166;2022-08-27T11:06:26;101403.76;;;19.60;100.00
18755;BME280;35061;47.664;9.166;2022-08-27T11:09:02;101383.38;;;19.65;100.00
18755;BME280;35061;47.664;9.166;2022-08-27T11:11:38;101395.95;;;19.74;100.00
18755;BME280;35061;47.664;9.166;2022-08-27T11:20:06;101392.61;;;20.14;100.00
18755;BME280;35061;47.664;9.166;2022-08-27T11:22:50;101383.32;;;20.15;100.00
18755;BME280;35061;47.664;9.166;2022-08-27T11:25:46;101390.88;;;20.24;100.00
18755;BME280;35061;47.664;9.166;2022-08-27T11:31:17;101382.70;;;20.42;100.00
18755;BME280;35061;47.664;9.166;2022-08-27T11:39:46;101373.02;;;20.53;100.00
18755;BME280;35061;47.664;9.166;2022-08-27T11:44:43;101374.82;;;20.56;100.00
18755;BME280;35061;47.664;9.166;2022-08-27T11:47:23;101367.03;;;20.64;100.00
18755;BME280;35061;47.664;9.166;2022-08-27T11:49:57;101375.77;;;20.64;100.00
18755;BME280;35061;47.664;9.166;2022-08-27T11:52:33;101368.84;;;20.67;100.00
18755;BME280;35061;47.664;9.166;2022-08-27T11:58:01;101363.05;;;21.00;100.00
18755;BME280;35061;47.664;9.166;2022-08-27T12:00:37;101363.54;;;21.17;100.00
18755;BME280;35061;47.664;9.166;2022-08-27T12:06:07;101348.46;;;21.46;95.83
18755;BME280;35061;47.664;9.166;2022-08-27T12:08:36;101335.67;;;21.62;88.69
18755;BME280;35061;47.664;9.166;2022-08-27T12:11:28;101348.69;;;21.75;94.71
18755;BME280;35061;47.664;9.166;2022-08-27T12:19:44;101335.12;;;22.05;86.38
18755;BME280;35061;47.664;9.166;2022-08-27T12:25:37;101331.85;;;22.43;92.02
18755;BME280;35061;47.664;9.166;2022-08-27T12:28:07;101329.01;;;22.64;88.69
18755;BME280;35061;47.664;9.166;2022-08-27T12:30:38;101333.62;;;22.81;91.72
18755;BME280;35061;47.664;9.166;2022-08-27T12:33:18;101329.20;;;22.87;88.30
18755;BME280;35061;47.664;9.166;2022-08-27T12:35:50;101327.44;;;23.06;86.06
18755;BME280;35061;47.664;9.166;2022-08-27T12:41:03;101318.57;;;23.19;85.06
18755;BME280;35061;47.664;9.166;2022-08-27T12:43:36;101321.68;;;23.21;87.40
18755;BME280;35061;47.664;9.166;2022-08-27T12:46:13;101315.20;;;23.15;84.44
18755;BME280;35061;47.664;9.166;2022-08-27T12:48:46;101318.70;;;23.13;84.96
18755;BME280;35061;47.664;9.166;2022-08-27T12:54:01;101314.75;;;23.03;81.43
18755;BME280;35061;47.664;9.166;2022-08-27T12:59:52;101317.95;;;22.92;84.53
18755;BME280;35061;47.664;9.166;2022-08-27T13:05:11;101317.88;;;22.84;84.30
18755;BME280;35061;47.664;9.166;2022-08-27T13:07:44;101315.89;;;22.79;85.94
18755;BME280;35061;47.664;9.166;2022-08-27T13:10:16;101321.52;;;22.77;85.08
18755;BME280;35061;47.664;9.166;2022-08-27T13:12:45;101315.89;;;22.79;85.34
18755;BME280;35061;47.664;9.166;2022-08-27T13:15:15;101314.52;;;22.80;85.39
18755;BME280;35061;47.664;9.166;2022-08-27T13:17:44;101306.77;;;22.82;84.74
18755;BME280;35061;47.664;9.166;2022-08-27T13:20:21;101310.46;;;22.83;85.33
18755;BME280;35061;47.664;9.166;2022-08-27T13:22:50;101307.33;;;22.81;84.00
18755;BME280;35061;47.664;9.166;2022-08-27T13:25:23;101300.95;;;22.82;83.87
18755;BME280;35061;47.664;9.166;2022-08-27T13:27:57;101302.29;;;22.81;83.65
18755;BME280;35061;47.664;9.166;2022-08-27T13:30:30;101300.39;;;22.84;83.18
18755;BME280;35061;47.664;9.166;2022-08-27T13:33:04;101296.66;;;22.83;83.34
18755;BME280;35061;47.664;9.166;2022-08-27T13:35:33;101304.41;;;22.81;82.20
18755;BME280;35061;47.664;9.166;2022-08-27T13:38:02;101298.79;;;22.83;82.87
18755;BME280;35061;47.664;9.166;2022-08-27T13:40:33;101307.33;;;22.81;82.33
18755;BME280;35061;47.664;9.166;2022-08-27T13:43:07;101311.84;;;22.82;82.28
18755;BME280;35061;47.664;9.166;2022-08-27T13:45:40;101307.55;;;22.83;81.99
18755;BME280;35061;47.664;9.166;2022-08-27T13:48:10;101316.32;;;22.83;81.61
18755;BME280;35061;47.664;9.166;2022-08-27T13:50:47;101316.32;;;22.83;82.08
18755;BME280;35061;47.664;9.166;2022-08-27T13:53:21;101307.33;;;22.81;81.32
18755;BME280;35061;47.664;9.166;2022-08-27T13:56:09;101314.75;;;22.82;81.64
18755;BME280;35061;47.664;9.166;2022-08-27T13:58:37;101307.33;;;22.81;81.22
18755;BME280;35061;47.664;9.166;2022-08-27T14:01:23;101307.33;;;22.81;80.63
18755;BME280;35061;47.664;9.166;2022-08-27T14:04:05;101309.48;;;22.80;79.88
18755;BME280;35061;47.664;9.166;2022-08-27T14:06:40;101311.84;;;22.82;79.17
18755;BME280;35061;47.664;9.166;2022-08-27T14:11:45;101312.06;;;22.84;79.37
18755;BME280;35061;47.664;9.166;2022-08-27T14:14:15;101311.67;;;22.87;79.25
18755;BME280;35061;47.664;9.166;2022-08-27T14:16:55;101316.94;;;22.89;79.23
18755;BME280;35061;47.664;9.166;2022-08-27T14:19:29;101309.74;;;22.90;78.17
18755;BME280;35061;47.664;9.166;2022-08-27T14:22:02;101312.33;;;22.94;79.73
18755;BME280;35061;47.664;9.166;2022-08-27T14:24:30;101316.64;;;23.00;80.00
18755;BME280;35061;47.664;9.166;2022-08-27T14:27:05;101317.46;;;23.01;79.23
18755;BME280;35061;47.664;9.166;2022-08-27T14:29:34;101316.32;;;23.04;79.63
18755;BME280;35061;47.664;9.166;2022-08-27T14:32:02;101314.78;;;23.11;80.12
18755;BME280;35061;47.664;9.166;2022-08-27T14:34:30;101307.59;;;23.12;79.83
18755;BME280;35061;47.664;9.166;2022-08-27T14:36:58;101313.44;;;23.12;78.65
18755;BME280;35061;47.664;9.166;2022-08-27T14:39:27;101321.58;;;23.06;78.05
18755;BME280;35061;47.664;9.166;2022-08-27T14:41:54;101327.56;;;23.00;77.53